sensor_id;sensor_type;location;lat;lon;timestamp;temperature;humidity
5059;DHT22;2548;52.050;11.036;2023-02-15T00:01:58;0.90;99.90
5059;DHT22;2548;52.050;11.036;2023-02-15T00:04:26;0.80;99.90
5059;DHT22;2548;52.050;11.036;2023-02-15T00:07:14;0.70;99.90
5059;DHT22;2548;52.050;11.036;2023-02-15T00:09:42;0.60;99.90
5059;DHT22;2548;52.050;11.036;2023-02-15T00:12:10;0.60;99.90
5059;DHT22;2548;52.050;11.036;2023-02-15T00:14:38;0.50;99.90
5059;DHT22;2548;52.050;11.036;2023-02-15T00:17:05;0.60;99.90
5059;DHT22;2548;52.050;11.036;2023-02-15T00:19:33;0.60;99.90
5059;DHT22;2548;52.050;11.036;2023-02-15T00:22:00;0.50;99.90
5059;DHT22;2548;52.050;11.036;2023-02-15T00:24:28;0.40;99.90
5059;DHT22;2548;52.050;11.036;2023-02-15T00:26:55;0.40;99.90
5059;DHT22;2548;52.050;11.036;2023-02-15T00:29:24;0.40;99.90
5059;DHT22;2548;52.050;11.036;2023-02-15T00:31:52;0.40;99.90
5059;DHT22;2548;52.050;11.036;2023-02-15T00:34:22;0.30;99.90
5059;DHT22;2548;52.050;11.036;2023-02-15T00:36:50;0.30;99.90
5059;DHT22;2548;52.050;11.036;2023-02-15T00:39:18;0.30;99.90
5059;DHT22;2548;52.050;11.036;2023-02-15T00:41:46;0.20;99.90
5059;DHT22;2548;52.050;11.036;2023-02-15T00:44:14;0.20;99.90
5059;DHT22;2548;52.050;11.036;2023-02-15T00:46:43;0.20;99.90
5059;DHT22;2548;52.050;11.036;2023-02-15T00:49:11;0.20;99.90
5059;DHT22;2548;52.050;11.036;2023-02-15T00:51:38;0.20;99.90
5059;DHT22;2548;52.050;11.036;2023-02-15T00:54:06;0.10;99.90
5059;DHT22;2548;52.050;11.036;2023-02-15T00:56:34;0.00;99.90
5059;DHT22;2548;52.050;11.036;2023-02-15T00:59:02;0.10;99.90
5059;DHT22;2548;52.050;11.036;2023-02-15T01:01:29;0.00;99.90
5059;DHT22;2548;52.050;11.036;2023-02-15T01:03:58;0.00;99.90
5059;DHT22;2548;52.050;11.036;2023-02-15T01:06:29;-0.10;99.90
5059;DHT22;2548;52.050;11.036;2023-02-15T01:08:56;-0.10;99.90
5059;DHT22;2548;52.050;11.036;2023-02-15T01:11:24;-0.20;99.90
5059;DHT22;2548;52.050;11.036;2023-02-15T01:13:53;-0.30;99.90
5059;DHT22;2548;52.050;11.036;2023-02-15T01:16:21;-0.40;99.90
5059;DHT22;2548;52.050;11.036;2023-02-15T01:18:49;-0.40;99.90
5059;DHT22;2548;52.050;11.036;2023-02-15T01:21:20;-0.50;99.90
5059;DHT22;2548;52.050;11.036;2023-02-15T01:23:48;-0.60;99.90
5059;DHT22;2548;52.050;11.036;2023-02-15T01:26:16;-0.60;99.90
5059;DHT22;2548;52.050;11.036;2023-02-15T01:28:44;-0.60;99.90
5059;DHT22;2548;52.050;11.036;2023-02-15T01:31:14;-0.70;99.90
5059;DHT22;2548;52.050;11.036;2023-02-15T01:33:42;-0.80;99.90
5059;DHT22;2548;52.050;11.036;2023-02-15T01:36:10;-0.90;99.90
5059;DHT22;2548;52.050;11.036;2023-02-15T01:38:40;-0.90;99.90
5059;DHT22;2548;52.050;11.036;2023-02-15T01:41:07;-1.00;99.90
5059;DHT22;2548;52.050;11.036;2023-02-15T01:43:51;-1.00;99.90
5059;DHT22;2548;52.050;11.036;2023-02-15T01:46:22;-1.10;99.90
5059;DHT22;2548;52.050;11.036;2023-02-15T01:48:54;-1.10;99.90
5059;DHT22;2548;52.050;11.036;2023-02-15T01:51:26;-1.10;99.90
5059;DHT22;2548;52.050;11.036;2023-02-15T01:54:02;-1.10;99.90
5059;DHT22;2548;52.050;11.036;2023-02-15T01:56:36;-1.10;99.90
5059;DHT22;2548;52.050;11.036;2023-02-15T01:59:08;-1.10;99.90
5059;DHT22;2548;52.050;11.036;2023-02-15T02:01:37;-1.10;99.90
5059;DHT22;2548;52.050;11.036;2023-02-15T02:04:10;-1.20;99.90
5059;DHT22;2548;52.050;11.036;2023-02-15T02:06:40;-1.20;99.90
5059;DHT22;2548;52.050;11.036;2023-02-15T02:09:08;-1.30;99.90
5059;DHT22;2548;52.050;11.036;2023-02-15T02:11:36;-1.30;99.90
5059;DHT22;2548;52.050;11.036;2023-02-15T02:14:05;-1.30;99.90
5059;DHT22;2548;52.050;11.036;2023-02-15T02:16:39;-1.40;99.90
5059;DHT22;2548;52.050;11.036;2023-02-15T02:19:34;-1.50;99.90
5059;DHT22;2548;52.050;11.036;2023-02-15T02:22:32;-1.50;99.90
5059;DHT22;2548;52.050;11.036;2023-02-15T02:25:28;-1.60;99.90
5059;DHT22;2548;52.050;11.036;2023-02-15T02:28:14;-1.60;99.90
5059;DHT22;2548;52.050;11.036;2023-02-15T02:31:17;-1.50;99.90
5059;DHT22;2548;52.050;11.036;2023-02-15T02:33:59;-1.50;99.90
5059;DHT22;2548;52.050;11.036;2023-02-15T02:36:33;-1.50;99.90
5059;DHT22;2548;52.050;11.036;2023-02-15T02:39:21;-1.50;99.90
5059;DHT22;2548;52.050;11.036;2023-02-15T02:41:56;-1.50;99.90
5059;DHT22;2548;52.050;11.036;2023-02-15T02:44:31;-1.40;99.90
5059;DHT22;2548;52.050;11.036;2023-02-15T02:47:04;-1.40;99.90
5059;DHT22;2548;52.050;11.036;2023-02-15T02:49:36;-1.40;99.90
5059;DHT22;2548;52.050;11.036;2023-02-15T02:52:05;-1.40;99.90
5059;DHT22;2548;52.050;11.036;2023-02-15T02:54:34;-1.40;99.90
5059;DHT22;2548;52.050;11.036;2023-02-15T02:57:06;-1.40;99.90
5059;DHT22;2548;52.050;11.036;2023-02-15T02:59:40;-1.40;99.90
5059;DHT22;2548;52.050;11.036;2023-02-15T03:02:11;-1.40;99.90
5059;DHT22;2548;52.050;11.036;2023-02-15T03:04:44;-1.50;99.90
5059;DHT22;2548;52.050;11.036;2023-02-15T03:07:15;-1.40;99.90
5059;DHT22;2548;52.050;11.036;2023-02-15T03:09:50;-1.40;99.90
5059;DHT22;2548;52.050;11.036;2023-02-15T03:12:20;-1.40;99.90
5059;DHT22;2548;52.050;11.036;2023-02-15T03:14:52;-1.40;99.90
5059;DHT22;2548;52.050;11.036;2023-02-15T03:17:23;-1.40;99.90
5059;DHT22;2548;52.050;11.036;2023-02-15T03:19:57;-1.40;99.90
5059;DHT22;2548;52.050;11.036;2023-02-15T03:22:30;-1.40;99.90
5059;DHT22;2548;52.050;11.036;2023-02-15T03:25:04;-1.40;99.90
5059;DHT22;2548;52.050;11.036;2023-02-15T03:27:37;-1.30;99.90
5059;DHT22;2548;52.050;11.036;2023-02-15T03:30:06;-1.30;99.90
5059;DHT22;2548;52.050;11.036;2023-02-15T03:32:37;-1.30;99.90
5059;DHT22;2548;52.050;11.036;2023-02-15T03:35:07;-1.40;99.90
5059;DHT22;2548;52.050;11.036;2023-02-15T03:37:38;-1.30;99.90
5059;DHT22;2548;52.050;11.036;2023-02-15T03:40:10;-1.30;99.90
5059;DHT22;2548;52.050;11.036;2023-02-15T03:43:01;-1.30;99.90
5059;DHT22;2548;52.050;11.036;2023-02-15T03:45:32;-1.30;99.90
5059;DHT22;2548;52.050;11.036;2023-02-15T03:48:02;-1.30;99.90
5059;DHT22;2548;52.050;11.036;2023-02-15T03:50:32;-1.20;99.90
5059;DHT22;2548;52.050;11.036;2023-02-15T03:53:21;-1.20;99.90
5059;DHT22;2548;52.050;11.036;2023-02-15T03:55:52;-1.10;99.90
5059;DHT22;2548;52.050;11.036;2023-02-15T03:58:20;-1.00;99.90
5059;DHT22;2548;52.050;11.036;2023-02-15T04:01:12;-1.00;99.90
5059;DHT22;2548;52.050;11.036;2023-02-15T04:04:01;-0.90;99.90
5059;DHT22;2548;52.050;11.036;2023-02-15T04:06:31;-0.90;99.90
5059;DHT22;2548;52.050;11.036;2023-02-15T04:08:59;-0.90;99.90
5059;DHT22;2548;52.050;11.036;2023-02-15T04:11:44;-0.90;99.90
5059;DHT22;2548;52.050;11.036;2023-02-15T04:14:11;-1.00;99.90
5059;DHT22;2548;52.050;11.036;2023-02-15T04:16:52;-1.00;99.90
5059;DHT22;2548;52.050;11.036;2023-02-15T04:19:20;-1.00;99.90
5059;DHT22;2548;52.050;11.036;2023-02-15T04:22:06;-1.00;99.90
5059;DHT22;2548;52.050;11.036;2023-02-15T04:24:51;-1.00;99.90
5059;DHT22;2548;52.050;11.036;2023-02-15T04:27:37;-0.90;99.90
5059;DHT22;2548;52.050;11.036;2023-02-15T04:30:06;-1.10;99.90
5059;DHT22;2548;52.050;11.036;2023-02-15T04:32:34;-1.10;99.90
5059;DHT22;2548;52.050;11.036;2023-02-15T04:35:01;-1.10;99.90
5059;DHT22;2548;52.050;11.036;2023-02-15T04:37:31;-1.00;99.90
5059;DHT22;2548;52.050;11.036;2023-02-15T04:39:58;-1.10;99.90
5059;DHT22;2548;52.050;11.036;2023-02-15T04:42:26;-1.10;99.90
5059;DHT22;2548;52.050;11.036;2023-02-15T04:44:54;-1.10;99.90
5059;DHT22;2548;52.050;11.036;2023-02-15T04:47:22;-1.10;99.90
5059;DHT22;2548;52.050;11.036;2023-02-15T04:49:49;-1.10;99.90
5059;DHT22;2548;52.050;11.036;2023-02-15T04:52:17;-1.00;99.90
5059;DHT22;2548;52.050;11.036;2023-02-15T04:54:46;-1.00;99.90
5059;DHT22;2548;52.050;11.036;2023-02-15T04:57:13;-1.00;99.90
5059;DHT22;2548;52.050;11.036;2023-02-15T04:59:41;-1.00;99.90
5059;DHT22;2548;52.050;11.036;2023-02-15T05:02:08;-1.10;99.90
5059;DHT22;2548;52.050;11.036;2023-02-15T05:04:36;-1.20;99.90
5059;DHT22;2548;52.050;11.036;2023-02-15T05:07:03;-1.20;99.90
5059;DHT22;2548;52.050;11.036;2023-02-15T05:09:30;-1.20;99.90
5059;DHT22;2548;52.050;11.036;2023-02-15T05:11:59;-1.20;99.90
5059;DHT22;2548;52.050;11.036;2023-02-15T05:14:27;-1.30;99.90
5059;DHT22;2548;52.050;11.036;2023-02-15T05:16:54;-1.30;99.90
5059;DHT22;2548;52.050;11.036;2023-02-15T05:19:22;-1.30;99.90
5059;DHT22;2548;52.050;11.036;2023-02-15T05:21:51;-1.30;99.90
5059;DHT22;2548;52.050;11.036;2023-02-15T05:24:18;-1.30;99.90
5059;DHT22;2548;52.050;11.036;2023-02-15T05:27:04;-1.30;99.90
5059;DHT22;2548;52.050;11.036;2023-02-15T05:29:49;-1.20;99.90
5059;DHT22;2548;52.050;11.036;2023-02-15T05:32:17;-1.20;99.90
5059;DHT22;2548;52.050;11.036;2023-02-15T05:34:44;-1.10;99.90
5059;DHT22;2548;52.050;11.036;2023-02-15T05:37:12;-1.10;99.90
5059;DHT22;2548;52.050;11.036;2023-02-15T05:39:39;-1.10;99.90
5059;DHT22;2548;52.050;11.036;2023-02-15T05:42:08;-1.10;99.90
5059;DHT22;2548;52.050;11.036;2023-02-15T05:44:36;-1.10;99.90
5059;DHT22;2548;52.050;11.036;2023-02-15T05:47:03;-1.20;99.90
5059;DHT22;2548;52.050;11.036;2023-02-15T05:49:33;-1.20;99.90
5059;DHT22;2548;52.050;11.036;2023-02-15T05:52:00;-1.20;99.90
5059;DHT22;2548;52.050;11.036;2023-02-15T05:54:28;-1.20;99.90
5059;DHT22;2548;52.050;11.036;2023-02-15T05:56:56;-1.20;99.90
5059;DHT22;2548;52.050;11.036;2023-02-15T05:59:24;-1.30;99.90
5059;DHT22;2548;52.050;11.036;2023-02-15T06:01:52;-1.30;99.90
5059;DHT22;2548;52.050;11.036;2023-02-15T06:04:19;-1.30;99.90
5059;DHT22;2548;52.050;11.036;2023-02-15T06:06:47;-1.30;99.90
5059;DHT22;2548;52.050;11.036;2023-02-15T06:09:14;-1.40;99.90
5059;DHT22;2548;52.050;11.036;2023-02-15T06:11:44;-1.40;99.90
5059;DHT22;2548;52.050;11.036;2023-02-15T06:14:11;-1.50;99.90
5059;DHT22;2548;52.050;11.036;2023-02-15T06:16:40;-1.60;99.90
5059;DHT22;2548;52.050;11.036;2023-02-15T06:19:08;-1.50;99.90
5059;DHT22;2548;52.050;11.036;2023-02-15T06:21:35;-1.50;99.90
5059;DHT22;2548;52.050;11.036;2023-02-15T06:24:03;-1.60;99.90
5059;DHT22;2548;52.050;11.036;2023-02-15T06:26:30;-1.50;99.90
5059;DHT22;2548;52.050;11.036;2023-02-15T06:28:58;-1.50;99.90
5059;DHT22;2548;52.050;11.036;2023-02-15T06:31:26;-1.60;99.90
5059;DHT22;2548;52.050;11.036;2023-02-15T06:33:55;-1.70;99.90
5059;DHT22;2548;52.050;11.036;2023-02-15T06:36:27;-1.70;99.90
5059;DHT22;2548;52.050;11.036;2023-02-15T06:38:54;-1.70;99.90
5059;DHT22;2548;52.050;11.036;2023-02-15T06:41:22;-1.70;99.90
5059;DHT22;2548;52.050;11.036;2023-02-15T06:43:50;-1.60;99.90
5059;DHT22;2548;52.050;11.036;2023-02-15T06:46:18;-1.50;99.90
5059;DHT22;2548;52.050;11.036;2023-02-15T06:48:45;-1.40;99.90
5059;DHT22;2548;52.050;11.036;2023-02-15T06:51:14;-1.50;99.90
5059;DHT22;2548;52.050;11.036;2023-02-15T06:53:42;-1.60;99.90
5059;DHT22;2548;52.050;11.036;2023-02-15T06:56:10;-1.60;99.90
5059;DHT22;2548;52.050;11.036;2023-02-15T06:58:38;-1.50;99.90
5059;DHT22;2548;52.050;11.036;2023-02-15T07:01:07;-1.60;99.90
5059;DHT22;2548;52.050;11.036;2023-02-15T07:03:35;-1.60;99.90
5059;DHT22;2548;52.050;11.036;2023-02-15T07:06:03;-1.50;99.90
5059;DHT22;2548;52.050;11.036;2023-02-15T07:08:36;-1.50;99.90
5059;DHT22;2548;52.050;11.036;2023-02-15T07:11:05;-1.50;99.90
5059;DHT22;2548;52.050;11.036;2023-02-15T07:13:50;-1.50;99.90
5059;DHT22;2548;52.050;11.036;2023-02-15T07:16:19;-1.70;99.90
5059;DHT22;2548;52.050;11.036;2023-02-15T07:18:46;-1.70;99.90
5059;DHT22;2548;52.050;11.036;2023-02-15T07:21:14;-1.70;99.90
5059;DHT22;2548;52.050;11.036;2023-02-15T07:23:43;-1.70;99.90
5059;DHT22;2548;52.050;11.036;2023-02-15T07:26:11;-1.60;99.90
5059;DHT22;2548;52.050;11.036;2023-02-15T07:28:38;-1.70;99.90
5059;DHT22;2548;52.050;11.036;2023-02-15T07:31:06;-1.70;99.90
5059;DHT22;2548;52.050;11.036;2023-02-15T07:33:34;-1.70;99.90
5059;DHT22;2548;52.050;11.036;2023-02-15T07:36:05;-1.60;99.90
5059;DHT22;2548;52.050;11.036;2023-02-15T07:38:35;-1.60;99.90
5059;DHT22;2548;52.050;11.036;2023-02-15T07:41:06;-1.60;99.90
5059;DHT22;2548;52.050;11.036;2023-02-15T07:43:35;-1.70;99.90
5059;DHT22;2548;52.050;11.036;2023-02-15T07:46:05;-1.70;99.90
5059;DHT22;2548;52.050;11.036;2023-02-15T07:48:33;-1.70;99.90
5059;DHT22;2548;52.050;11.036;2023-02-15T07:51:01;-1.80;99.90
5059;DHT22;2548;52.050;11.036;2023-02-15T07:53:30;-1.70;99.90
5059;DHT22;2548;52.050;11.036;2023-02-15T07:55:58;-1.80;99.90
5059;DHT22;2548;52.050;11.036;2023-02-15T07:58:27;-1.70;99.90
5059;DHT22;2548;52.050;11.036;2023-02-15T08:01:09;-1.70;99.90
5059;DHT22;2548;52.050;11.036;2023-02-15T08:03:36;-1.70;99.90
5059;DHT22;2548;52.050;11.036;2023-02-15T08:06:04;-1.60;99.90
5059;DHT22;2548;52.050;11.036;2023-02-15T08:08:33;-1.60;99.90
5059;DHT22;2548;52.050;11.036;2023-02-15T08:11:03;-1.60;99.90
5059;DHT22;2548;52.050;11.036;2023-02-15T08:13:51;-1.70;99.90
5059;DHT22;2548;52.050;11.036;2023-02-15T08:16:23;-1.60;99.90
5059;DHT22;2548;52.050;11.036;2023-02-15T08:18:51;-1.50;99.90
5059;DHT22;2548;52.050;11.036;2023-02-15T08:21:19;-1.40;99.90
5059;DHT22;2548;52.050;11.036;2023-02-15T08:23:46;-1.30;99.90
5059;DHT22;2548;52.050;11.036;2023-02-15T08:26:14;-1.30;99.90
5059;DHT22;2548;52.050;11.036;2023-02-15T08:28:43;-1.30;99.90
5059;DHT22;2548;52.050;11.036;2023-02-15T08:31:13;-1.20;99.90
5059;DHT22;2548;52.050;11.036;2023-02-15T08:33:42;-1.10;99.90
5059;DHT22;2548;52.050;11.036;2023-02-15T08:36:11;-1.10;99.90
5059;DHT22;2548;52.050;11.036;2023-02-15T08:38:39;-1.00;99.90
5059;DHT22;2548;52.050;11.036;2023-02-15T08:41:14;-1.00;99.90
5059;DHT22;2548;52.050;11.036;2023-02-15T08:43:42;-1.10;99.90
5059;DHT22;2548;52.050;11.036;2023-02-15T08:46:14;-1.00;99.90
5059;DHT22;2548;52.050;11.036;2023-02-15T08:48:42;-0.90;99.90
5059;DHT22;2548;52.050;11.036;2023-02-15T08:51:10;-0.80;99.90
5059;DHT22;2548;52.050;11.036;2023-02-15T08:53:38;-0.80;99.90
5059;DHT22;2548;52.050;11.036;2023-02-15T08:56:07;-0.80;99.90
5059;DHT22;2548;52.050;11.036;2023-02-15T08:58:34;-0.80;99.90
5059;DHT22;2548;52.050;11.036;2023-02-15T09:01:08;-0.70;99.90
5059;DHT22;2548;52.050;11.036;2023-02-15T09:03:38;-0.70;99.90
5059;DHT22;2548;52.050;11.036;2023-02-15T09:06:06;-0.60;99.90
5059;DHT22;2548;52.050;11.036;2023-02-15T09:08:33;-0.50;99.90
5059;DHT22;2548;52.050;11.036;2023-02-15T09:11:09;-0.50;99.90
5059;DHT22;2548;52.050;11.036;2023-02-15T09:13:39;-0.40;99.90
5059;DHT22;2548;52.050;11.036;2023-02-15T09:16:08;-0.30;99.90
5059;DHT22;2548;52.050;11.036;2023-02-15T09:18:38;-0.30;99.90
5059;DHT22;2548;52.050;11.036;2023-02-15T09:21:08;-0.30;99.90
5059;DHT22;2548;52.050;11.036;2023-02-15T09:23:36;-0.30;99.90
5059;DHT22;2548;52.050;11.036;2023-02-15T09:26:05;-0.20;99.90
5059;DHT22;2548;52.050;11.036;2023-02-15T09:28:33;-0.20;99.90
5059;DHT22;2548;52.050;11.036;2023-02-15T09:31:09;-0.20;99.90
5059;DHT22;2548;52.050;11.036;2023-02-15T09:33:39;-0.20;99.90
5059;DHT22;2548;52.050;11.036;2023-02-15T09:36:14;-0.10;99.90
5059;DHT22;2548;52.050;11.036;2023-02-15T09:38:42;0.00;99.90
5059;DHT22;2548;52.050;11.036;2023-02-15T09:41:27;-0.10;99.90
5059;DHT22;2548;52.050;11.036;2023-02-15T09:44:10;-0.10;99.90
5059;DHT22;2548;52.050;11.036;2023-02-15T09:46:49;-0.10;99.90
5059;DHT22;2548;52.050;11.036;2023-02-15T09:49:26;0.00;99.90
5059;DHT22;2548;52.050;11.036;2023-02-15T09:52:13;0.20;99.90
5059;DHT22;2548;52.050;11.036;2023-02-15T09:54:55;0.20;99.90
5059;DHT22;2548;52.050;11.036;2023-02-15T09:57:28;0.20;99.90
5059;DHT22;2548;52.050;11.036;2023-02-15T10:00:06;0.30;99.90
5059;DHT22;2548;52.050;11.036;2023-02-15T10:03:03;0.40;99.90
5059;DHT22;2548;52.050;11.036;2023-02-15T10:05:41;0.40;99.90
5059;DHT22;2548;52.050;11.036;2023-02-15T10:08:24;0.50;99.90
5059;DHT22;2548;52.050;11.036;2023-02-15T10:11:02;0.50;99.90
5059;DHT22;2548;52.050;11.036;2023-02-15T10:13:54;0.60;99.90
5059;DHT22;2548;52.050;11.036;2023-02-15T10:16:26;0.60;99.90
5059;DHT22;2548;52.050;11.036;2023-02-15T10:19:00;0.70;99.90
5059;DHT22;2548;52.050;11.036;2023-02-15T10:21:43;0.80;99.90
5059;DHT22;2548;52.050;11.036;2023-02-15T10:24:36;0.90;99.90
5059;DHT22;2548;52.050;11.036;2023-02-15T10:27:11;0.90;99.90
5059;DHT22;2548;52.050;11.036;2023-02-15T10:29:43;0.80;99.90
5059;DHT22;2548;52.050;11.036;2023-02-15T10:32:21;0.90;99.90
5059;DHT22;2548;52.050;11.036;2023-02-15T10:34:51;1.10;99.90
5059;DHT22;2548;52.050;11.036;2023-02-15T10:37:42;1.30;99.90
5059;DHT22;2548;52.050;11.036;2023-02-15T10:40:21;1.30;99.90
5059;DHT22;2548;52.050;11.036;2023-02-15T10:45:47;1.50;99.90
5059;DHT22;2548;52.050;11.036;2023-02-15T10:48:27;1.50;99.90
5059;DHT22;2548;52.050;11.036;2023-02-15T10:50:59;1.60;99.90
5059;DHT22;2548;52.050;11.036;2023-02-15T10:54:01;1.50;99.90
5059;DHT22;2548;52.050;11.036;2023-02-15T10:56:38;1.50;99.90
5059;DHT22;2548;52.050;11.036;2023-02-15T11:02:10;1.50;99.90
5059;DHT22;2548;52.050;11.036;2023-02-15T11:04:47;1.70;99.90
5059;DHT22;2548;52.050;11.036;2023-02-15T11:07:20;1.80;99.90
5059;DHT22;2548;52.050;11.036;2023-02-15T11:09:51;2.00;99.90
5059;DHT22;2548;52.050;11.036;2023-02-15T11:12:24;2.10;99.90
5059;DHT22;2548;52.050;11.036;2023-02-15T11:14:55;2.10;99.90
5059;DHT22;2548;52.050;11.036;2023-02-15T11:17:29;2.30;99.90
5059;DHT22;2548;52.050;11.036;2023-02-15T11:20:08;2.30;99.90
5059;DHT22;2548;52.050;11.036;2023-02-15T11:22:39;2.50;99.90
5059;DHT22;2548;52.050;11.036;2023-02-15T11:25:17;2.60;99.90
5059;DHT22;2548;52.050;11.036;2023-02-15T11:27:46;2.70;99.90
5059;DHT22;2548;52.050;11.036;2023-02-15T11:30:20;2.70;99.90
5059;DHT22;2548;52.050;11.036;2023-02-15T11:32:49;2.70;99.90
5059;DHT22;2548;52.050;11.036;2023-02-15T11:35:24;2.80;99.90
5059;DHT22;2548;52.050;11.036;2023-02-15T11:37:58;2.90;99.90
5059;DHT22;2548;52.050;11.036;2023-02-15T11:40:32;3.00;99.90
5059;DHT22;2548;52.050;11.036;2023-02-15T11:43:04;3.00;99.90
5059;DHT22;2548;52.050;11.036;2023-02-15T11:45:33;3.10;99.90
5059;DHT22;2548;52.050;11.036;2023-02-15T11:48:08;3.20;99.90
5059;DHT22;2548;52.050;11.036;2023-02-15T11:50:37;3.20;99.90
5059;DHT22;2548;52.050;11.036;2023-02-15T11:53:09;3.20;99.90
5059;DHT22;2548;52.050;11.036;2023-02-15T11:55:40;3.30;99.90
5059;DHT22;2548;52.050;11.036;2023-02-15T11:58:15;3.30;99.90
5059;DHT22;2548;52.050;11.036;2023-02-15T12:00:50;3.30;99.90
5059;DHT22;2548;52.050;11.036;2023-02-15T12:03:21;3.40;99.90
5059;DHT22;2548;52.050;11.036;2023-02-15T12:05:53;3.50;99.90
5059;DHT22;2548;52.050;11.036;2023-02-15T12:08:21;3.60;99.90
5059;DHT22;2548;52.050;11.036;2023-02-15T12:10:57;3.70;99.90
5059;DHT22;2548;52.050;11.036;2023-02-15T12:13:26;3.70;99.90
5059;DHT22;2548;52.050;11.036;2023-02-15T12:15:55;3.80;99.90
5059;DHT22;2548;52.050;11.036;2023-02-15T12:18:34;3.90;99.90
5059;DHT22;2548;52.050;11.036;2023-02-15T12:21:06;4.00;99.90
5059;DHT22;2548;52.050;11.036;2023-02-15T12:23:41;4.10;99.90
5059;DHT22;2548;52.050;11.036;2023-02-15T12:26:12;4.10;99.90
5059;DHT22;2548;52.050;11.036;2023-02-15T12:28:41;4.20;99.90
5059;DHT22;2548;52.050;11.036;2023-02-15T12:31:20;4.30;99.90
5059;DHT22;2548;52.050;11.036;2023-02-15T12:33:50;4.30;99.90
5059;DHT22;2548;52.050;11.036;2023-02-15T12:36:22;4.30;99.90
5059;DHT22;2548;52.050;11.036;2023-02-15T12:39:09;4.40;99.90
5059;DHT22;2548;52.050;11.036;2023-02-15T12:41:46;4.50;99.90
5059;DHT22;2548;52.050;11.036;2023-02-15T12:44:24;4.60;99.90
5059;DHT22;2548;52.050;11.036;2023-02-15T12:47:00;4.70;99.90
5059;DHT22;2548;52.050;11.036;2023-02-15T12:49:29;4.70;99.90
5059;DHT22;2548;52.050;11.036;2023-02-15T12:51:58;4.70;99.90
5059;DHT22;2548;52.050;11.036;2023-02-15T12:54:37;4.70;99.90
5059;DHT22;2548;52.050;11.036;2023-02-15T12:57:22;4.70;99.90
5059;DHT22;2548;52.050;11.036;2023-02-15T12:59:53;4.70;99.90
5059;DHT22;2548;52.050;11.036;2023-02-15T13:02:24;4.70;99.90
5059;DHT22;2548;52.050;11.036;2023-02-15T13:04:53;4.70;99.90
5059;DHT22;2548;52.050;11.036;2023-02-15T13:07:21;4.70;99.90
5059;DHT22;2548;52.050;11.036;2023-02-15T13:09:49;4.70;99.90
5059;DHT22;2548;52.050;11.036;2023-02-15T13:12:21;4.80;99.90
5059;DHT22;2548;52.050;11.036;2023-02-15T13:14:51;4.90;99.90
5059;DHT22;2548;52.050;11.036;2023-02-15T13:17:25;5.00;99.90
5059;DHT22;2548;52.050;11.036;2023-02-15T13:19:59;5.00;99.90
5059;DHT22;2548;52.050;11.036;2023-02-15T13:22:33;5.10;99.90
5059;DHT22;2548;52.050;11.036;2023-02-15T13:25:05;5.20;99.90
5059;DHT22;2548;52.050;11.036;2023-02-15T13:27:40;5.20;99.90
5059;DHT22;2548;52.050;11.036;2023-02-15T13:30:28;5.20;99.90
5059;DHT22;2548;52.050;11.036;2023-02-15T13:33:02;5.40;99.90
5059;DHT22;2548;52.050;11.036;2023-02-15T13:35:36;5.50;99.90
5059;DHT22;2548;52.050;11.036;2023-02-15T13:38:22;5.60;99.90
5059;DHT22;2548;52.050;11.036;2023-02-15T13:40:58;5.70;99.90
5059;DHT22;2548;52.050;11.036;2023-02-15T13:43:35;5.80;99.90
5059;DHT22;2548;52.050;11.036;2023-02-15T13:46:19;5.90;99.90
5059;DHT22;2548;52.050;11.036;2023-02-15T13:49:02;5.80;99.90
5059;DHT22;2548;52.050;11.036;2023-02-15T13:51:38;5.80;99.90
5059;DHT22;2548;52.050;11.036;2023-02-15T13:54:26;5.90;99.90
5059;DHT22;2548;52.050;11.036;2023-02-15T13:57:10;5.80;99.90
5059;DHT22;2548;52.050;11.036;2023-02-15T13:59:51;5.90;99.90
5059;DHT22;2548;52.050;11.036;2023-02-15T14:02:46;5.90;99.90
5059;DHT22;2548;52.050;11.036;2023-02-15T14:05:28;6.00;99.90
5059;DHT22;2548;52.050;11.036;2023-02-15T14:08:04;6.00;99.90
5059;DHT22;2548;52.050;11.036;2023-02-15T14:10:44;6.00;99.90
5059;DHT22;2548;52.050;11.036;2023-02-15T14:13:41;6.20;99.90
5059;DHT22;2548;52.050;11.036;2023-02-15T14:16:20;6.20;99.90
5059;DHT22;2548;52.050;11.036;2023-02-15T14:18:54;6.30;99.90
5059;DHT22;2548;52.050;11.036;2023-02-15T14:21:27;6.30;99.90
5059;DHT22;2548;52.050;11.036;2023-02-15T14:24:08;6.40;99.90
5059;DHT22;2548;52.050;11.036;2023-02-15T14:26:45;6.40;99.90
5059;DHT22;2548;52.050;11.036;2023-02-15T14:29:20;6.50;99.90
5059;DHT22;2548;52.050;11.036;2023-02-15T14:31:55;6.50;99.90
5059;DHT22;2548;52.050;11.036;2023-02-15T14:34:25;6.60;99.90
5059;DHT22;2548;52.050;11.036;2023-02-15T14:36:55;6.60;99.90
5059;DHT22;2548;52.050;11.036;2023-02-15T14:39:31;6.70;99.90
5059;DHT22;2548;52.050;11.036;2023-02-15T14:42:25;6.70;99.90
5059;DHT22;2548;52.050;11.036;2023-02-15T14:45:01;6.70;99.90
5059;DHT22;2548;52.050;11.036;2023-02-15T14:47:34;6.70;99.90
5059;DHT22;2548;52.050;11.036;2023-02-15T14:50:35;6.80;99.90
5059;DHT22;2548;52.050;11.036;2023-02-15T14:53:34;6.80;99.90
5059;DHT22;2548;52.050;11.036;2023-02-15T14:56:25;6.80;99.90
5059;DHT22;2548;52.050;11.036;2023-02-15T14:59:14;6.70;99.90
5059;DHT22;2548;52.050;11.036;2023-02-15T15:01:51;6.70;99.90
5059;DHT22;2548;52.050;11.036;2023-02-15T15:04:28;6.60;99.90
5059;DHT22;2548;52.050;11.036;2023-02-15T15:07:02;6.60;99.90
5059;DHT22;2548;52.050;11.036;2023-02-15T15:09:34;6.60;99.90
5059;DHT22;2548;52.050;11.036;2023-02-15T15:15:13;6.60;99.90
5059;DHT22;2548;52.050;11.036;2023-02-15T15:17:57;6.60;99.90
5059;DHT22;2548;52.050;11.036;2023-02-15T15:20:45;6.40;99.90
5059;DHT22;2548;52.050;11.036;2023-02-15T15:23:42;6.40;99.90
5059;DHT22;2548;52.050;11.036;2023-02-15T15:26:28;6.30;99.90
5059;DHT22;2548;52.050;11.036;2023-02-15T15:28:58;6.20;99.90
5059;DHT22;2548;52.050;11.036;2023-02-15T15:35:01;6.10;99.90
5059;DHT22;2548;52.050;11.036;2023-02-15T15:37:55;6.00;99.90
5059;DHT22;2548;52.050;11.036;2023-02-15T15:40:42;5.90;99.90
5059;DHT22;2548;52.050;11.036;2023-02-15T15:47:06;5.70;99.90
5059;DHT22;2548;52.050;11.036;2023-02-15T15:49:38;5.60;99.90
5059;DHT22;2548;52.050;11.036;2023-02-15T15:52:12;5.50;99.90
5059;DHT22;2548;52.050;11.036;2023-02-15T15:54:44;5.40;99.90
5059;DHT22;2548;52.050;11.036;2023-02-15T15:57:20;5.40;99.90
5059;DHT22;2548;52.050;11.036;2023-02-15T15:59:49;5.30;99.90
5059;DHT22;2548;52.050;11.036;2023-02-15T16:02:17;5.30;99.90
5059;DHT22;2548;52.050;11.036;2023-02-15T16:04:45;5.20;99.90
5059;DHT22;2548;52.050;11.036;2023-02-15T16:07:26;5.10;99.90
5059;DHT22;2548;52.050;11.036;2023-02-15T16:09:56;5.10;99.90
5059;DHT22;2548;52.050;11.036;2023-02-15T16:12:25;5.00;99.90
5059;DHT22;2548;52.050;11.036;2023-02-15T16:14:54;4.90;99.90
5059;DHT22;2548;52.050;11.036;2023-02-15T16:17:24;4.80;99.90
5059;DHT22;2548;52.050;11.036;2023-02-15T16:19:53;4.80;99.90
5059;DHT22;2548;52.050;11.036;2023-02-15T16:22:25;4.70;99.90
5059;DHT22;2548;52.050;11.036;2023-02-15T16:25:20;4.60;99.90
5059;DHT22;2548;52.050;11.036;2023-02-15T16:27:52;4.50;99.90
5059;DHT22;2548;52.050;11.036;2023-02-15T16:30:23;4.50;99.90
5059;DHT22;2548;52.050;11.036;2023-02-15T16:32:53;4.40;99.90
5059;DHT22;2548;52.050;11.036;2023-02-15T16:35:21;4.30;99.90
5059;DHT22;2548;52.050;11.036;2023-02-15T16:37:49;4.30;99.90
5059;DHT22;2548;52.050;11.036;2023-02-15T16:40:39;4.20;99.90
5059;DHT22;2548;52.050;11.036;2023-02-15T16:43:14;4.10;99.90
5059;DHT22;2548;52.050;11.036;2023-02-15T16:45:42;4.10;99.90
5059;DHT22;2548;52.050;11.036;2023-02-15T16:48:16;4.00;99.90